Time;durP1;ratioP1;P1;durP2;ratioP2;P2;SDS_P1;SDS_P2;PMS_P1;PMS_P2;Temp;Humidity;BMP_temperature;BMP_pressure;BME280_temperature;BME280_humidity;BME280_pressure;Samples;Min_cycle;Max_cycle;Signal;HPM_P1;HPM_P2
2021/06/19 00:00:55;;;;;;;;;7.00;7.00;;;;;22.41;66.21;101182.19;4975506;28;45429;-80
2021/06/19 00:03:21;;;;;;;;;6.50;6.50;;;;;22.38;66.60;101191.31;4975906;28;45395;-80
2021/06/19 00:05:46;;;;;;;;;7.75;6.00;;;;;22.35;66.34;101188.91;4974827;28;45415;-81
2021/06/19 00:08:12;;;;;;;;;5.75;5.75;;;;;22.34;67.00;101195.25;4976828;28;45743;-81
2021/06/19 00:10:39;;;;;;;;;5.00;5.00;;;;;22.33;66.74;101192.69;4974873;28;47394;-80
2021/06/19 00:13:04;;;;;;;;;7.50;6.25;;;;;22.31;66.93;101183.94;4974277;28;45478;-80
2021/06/19 00:15:30;;;;;;;;;4.75;4.75;;;;;22.25;67.06;101179.97;4975048;28;45506;-79
2021/06/19 00:17:55;;;;;;;;;6.50;6.00;;;;;22.27;67.01;101202.09;4976610;28;45442;-79
2021/06/19 00:20:23;;;;;;;;;6.50;5.50;;;;;22.24;67.28;101190.78;4977025;28;45458;-80
2021/06/19 00:22:50;;;;;;;;;4.50;4.50;;;;;22.23;67.28;101206.00;4975661;28;45442;-80
2021/06/19 00:25:17;;;;;;;;;4.00;4.00;;;;;22.20;67.43;101198.25;4975806;28;45552;-80
2021/06/19 00:27:43;;;;;;;;;5.00;5.00;;;;;22.16;67.83;101190.59;4973381;28;45612;-80
2021/06/19 00:30:12;;;;;;;;;8.50;7.50;;;;;22.13;67.94;101195.25;4974645;28;46095;-79
2021/06/19 00:32:38;;;;;;;;;6.00;6.00;;;;;22.11;68.30;101199.88;4976297;28;45876;-80
2021/06/19 00:35:05;;;;;;;;;6.00;6.00;;;;;22.07;68.10;101205.56;4975522;28;45763;-80
2021/06/19 00:37:34;;;;;;;;;6.50;6.50;;;;;22.06;68.05;101203.88;4990840;28;45660;-79
2021/06/19 00:40:01;;;;;;;;;6.75;6.25;;;;;22.06;67.85;101204.72;4975583;28;46569;-79
2021/06/19 00:42:27;;;;;;;;;6.00;6.00;;;;;22.04;68.51;101195.97;4975207;28;45809;-80
2021/06/19 00:44:55;;;;;;;;;9.00;7.75;;;;;22.04;67.91;101205.84;4975345;28;45334;-80
2021/06/19 00:47:20;;;;;;;;;8.25;7.00;;;;;22.01;68.40;101198.06;4976258;28;45867;-79
2021/06/19 00:49:47;;;;;;;;;7.25;5.50;;;;;21.98;68.41;101201.84;4991186;28;46365;-81
2021/06/19 00:52:12;;;;;;;;;6.75;6.75;;;;;21.96;68.43;101202.94;4974288;28;45561;-80
2021/06/19 00:54:38;;;;;;;;;7.00;7.00;;;;;21.94;68.56;101197.72;4975661;28;45542;-81
2021/06/19 00:57:06;;;;;;;;;7.00;6.25;;;;;21.93;68.62;101195.19;4974786;28;45464;-81
2021/06/19 00:59:31;;;;;;;;;5.75;5.75;;;;;21.87;68.69;101199.19;4989541;28;47660;-80
2021/06/19 01:01:57;;;;;;;;;8.00;6.00;;;;;21.86;68.53;101213.56;4974512;28;45481;-81
2021/06/19 01:04:22;;;;;;;;;9.25;9.25;;;;;21.82;69.24;101210.31;4974378;28;45509;-80
2021/06/19 01:06:47;;;;;;;;;7.00;7.00;;;;;21.82;69.00;101209.44;4973902;28;45504;-80
2021/06/19 01:09:13;;;;;;;;;5.50;5.50;;;;;21.80;69.09;101212.25;4975421;28;45532;-80
2021/06/19 01:11:39;;;;;;;;;6.25;6.25;;;;;21.79;69.11;101212.38;4974389;28;45387;-80
2021/06/19 01:14:06;;;;;;;;;6.50;6.50;;;;;21.74;68.93;101207.41;4976008;28;45408;-80
2021/06/19 01:16:33;;;;;;;;;5.50;5.50;;;;;21.71;69.42;101188.91;4974448;28;45482;-80
2021/06/19 01:18:59;;;;;;;;;6.00;6.00;;;;;21.72;69.34;101192.47;4974300;28;46552;-80
2021/06/19 01:21:29;;;;;;;;;9.50;7.00;;;;;21.67;69.22;101182.16;4974600;28;46908;-79
2021/06/19 01:23:55;;;;;;;;;7.50;7.00;;;;;21.63;69.30;101181.53;4974869;28;45443;-80
2021/06/19 01:26:28;;;;;;;;;6.00;6.00;;;;;21.58;69.65;101183.75;4974662;28;45641;-80
2021/06/19 01:28:54;;;;;;;;;8.75;7.50;;;;;21.54;70.09;101187.63;4973716;28;46406;-79
2021/06/19 01:31:20;;;;;;;;;8.25;8.00;;;;;21.52;69.84;101194.09;4990139;28;45856;-80
2021/06/19 01:33:47;;;;;;;;;7.25;7.00;;;;;21.50;69.84;101196.88;4974661;28;45441;-80
2021/06/19 01:36:14;;;;;;;;;6.00;6.00;;;;;21.48;70.08;101201.50;4972519;28;45462;-80
2021/06/19 01:38:41;;;;;;;;;6.00;6.00;;;;;21.46;70.41;101206.16;4974115;28;46489;-79
2021/06/19 01:41:13;;;;;;;;;10.00;6.50;;;;;21.44;70.31;101208.09;4975202;28;45334;-79
2021/06/19 01:43:40;;;;;;;;;8.00;8.00;;;;;21.41;70.61;101213.69;4974526;28;45448;-80
2021/06/19 01:46:07;;;;;;;;;7.50;7.50;;;;;21.39;70.41;101214.78;4973158;28;45510;-80
2021/06/19 01:48:32;;;;;;;;;6.00;6.00;;;;;21.36;70.32;101211.38;4973540;28;46657;-79
2021/06/19 01:50:57;;;;;;;;;8.00;6.75;;;;;21.33;70.35;101208.09;4975151;28;45287;-80
2021/06/19 01:53:23;;;;;;;;;8.00;8.00;;;;;21.32;70.87;101209.09;4975185;28;45470;-79
2021/06/19 01:55:48;;;;;;;;;8.50;7.50;;;;;21.29;70.45;101211.97;4989936;28;45455;-80
2021/06/19 01:58:13;;;;;;;;;7.50;7.50;;;;;21.25;70.77;101211.38;4972565;28;45803;-79
2021/06/19 02:00:39;;;;;;;;;7.50;7.50;;;;;21.19;71.11;101213.66;4987959;28;45474;-80
2021/06/19 02:03:08;;;;;;;;;6.75;6.75;;;;;21.24;71.15;101211.47;4973825;28;45991;-80
2021/06/19 02:05:34;;;;;;;;;9.00;8.00;;;;;21.22;71.19;101202.75;4973602;28;45270;-80
2021/06/19 02:08:03;;;;;;;;;6.50;6.00;;;;;21.22;71.22;101202.75;4990539;28;48175;-80
2021/06/19 02:10:32;;;;;;;;;11.50;8.00;;;;;21.19;71.09;101195.81;4974670;28;45401;-79
2021/06/19 02:12:59;;;;;;;;;7.75;7.75;;;;;21.17;71.76;101203.09;4974246;28;45587;-79
2021/06/19 02:15:25;;;;;;;;;8.00;7.00;;;;;21.20;71.81;101215.41;4973744;28;45242;-80
2021/06/19 02:17:50;;;;;;;;;9.50;7.00;;;;;21.17;72.13;101200.44;4972262;28;48540;-80
2021/06/19 02:20:18;;;;;;;;;8.75;8.75;;;;;21.16;72.09;101193.41;4975766;28;45512;-80
2021/06/19 02:22:43;;;;;;;;;7.50;7.50;;;;;21.18;72.07;101201.28;4974521;28;45438;-80
2021/06/19 02:25:11;;;;;;;;;8.75;8.00;;;;;21.19;72.11;101197.63;4973824;28;45719;-80
2021/06/19 02:27:44;;;;;;;;;8.00;8.00;;;;;21.19;72.21;101197.63;4973707;28;46190;-80
2021/06/19 02:30:11;;;;;;;;;7.50;7.50;;;;;21.16;71.90;101189.88;4973513;28;45592;-80
2021/06/19 02:32:37;;;;;;;;;6.50;6.50;;;;;21.14;71.85;101197.16;4973526;28;45387;-80
2021/06/19 02:35:03;;;;;;;;;7.50;6.75;;;;;21.14;71.66;101197.16;4974928;28;45395;-80
2021/06/19 02:37:29;;;;;;;;;7.00;7.00;;;;;21.13;71.72;101200.81;4972930;28;45458;-79
2021/06/19 02:39:54;;;;;;;;;8.00;8.00;;;;;21.14;71.80;101202.50;4974061;28;45367;-80
2021/06/19 02:42:20;;;;;;;;;6.50;6.50;;;;;21.13;71.73;101211.50;4973806;28;45611;-80
2021/06/19 02:44:45;;;;;;;;;7.00;7.00;;;;;21.12;72.06;101218.66;4973894;28;45345;-80
2021/06/19 02:47:10;;;;;;;;;9.75;7.75;;;;;21.11;72.19;101228.50;4974455;28;45610;-80
2021/06/19 02:49:36;;;;;;;;;9.75;7.75;;;;;21.13;72.40;101224.84;4974048;28;45494;-80
2021/06/19 02:52:01;;;;;;;;;10.00;8.00;;;;;21.10;72.62;101221.47;4974324;28;45416;-80
2021/06/19 02:54:26;;;;;;;;;7.50;7.50;;;;;21.13;72.71;101222.19;4972894;28;46156;-80
2021/06/19 02:56:51;;;;;;;;;7.25;7.00;;;;;21.07;72.02;101216.34;4973610;28;46363;-80
2021/06/19 02:59:17;;;;;;;;;8.50;8.50;;;;;21.01;72.60;101214.16;4974479;28;57267;-80
2021/06/19 03:01:44;;;;;;;;;8.00;8.00;;;;;21.03;72.58;101211.38;4972602;28;45599;-80
2021/06/19 03:04:10;;;;;;;;;8.50;8.00;;;;;21.00;72.36;101212.47;4972945;28;45668;-80
2021/06/19 03:06:35;;;;;;;;;8.25;7.00;;;;;20.96;73.02;101208.34;4972889;28;50951;-80
2021/06/19 03:09:01;;;;;;;;;8.00;8.00;;;;;20.93;72.50;101216.59;4973132;28;45427;-80
2021/06/19 03:11:27;;;;;;;;;9.75;9.75;;;;;20.94;72.91;101225.47;4974156;28;45396;-79
2021/06/19 03:13:52;;;;;;;;;11.00;11.00;;;;;20.92;73.10;101222.06;4973850;28;45428;-80
2021/06/19 03:16:17;;;;;;;;;8.25;7.75;;;;;20.90;72.86;101211.50;4972161;28;46160;-80
2021/06/19 03:18:43;;;;;;;;;8.25;8.25;;;;;20.89;72.68;101211.63;4976312;28;47522;-80
2021/06/19 03:21:08;;;;;;;;;9.00;7.75;;;;;20.86;73.02;101210.03;4977496;28;45451;-80
2021/06/19 03:23:33;;;;;;;;;9.25;9.25;;;;;20.84;72.79;101214.66;4975811;28;45438;-80
2021/06/19 03:25:59;;;;;;;;;9.00;9.00;;;;;20.81;73.23;101212.22;4977670;28;45470;-79
2021/06/19 03:28:24;;;;;;;;;11.25;8.50;;;;;20.81;73.54;101223.75;4976639;28;45436;-80
2021/06/19 03:30:50;;;;;;;;;11.00;9.50;;;;;20.81;73.44;101217.56;4974856;28;45401;-80
2021/06/19 03:33:17;;;;;;;;;8.50;8.25;;;;;20.80;72.87;101224.72;4976084;28;45643;-80
2021/06/19 03:35:43;;;;;;;;;10.50;10.25;;;;;20.79;73.09;101214.16;4976413;28;46288;-81
2021/06/19 03:38:09;;;;;;;;;8.00;7.00;;;;;20.77;72.83;101206.25;4978251;28;45467;-80
2021/06/19 03:40:37;;;;;;;;;8.75;8.75;;;;;20.76;73.60;101222.41;4975670;28;45595;-80
2021/06/19 03:43:03;;;;;;;;;9.00;9.00;;;;;20.74;73.16;101213.69;4976027;28;45645;-80
2021/06/19 03:45:32;;;;;;;;;11.00;8.75;;;;;20.71;73.24;101219.25;4975582;28;45564;-80
2021/06/19 03:47:58;;;;;;;;;10.00;10.00;;;;;20.68;73.68;101201.66;4976192;28;45415;-80
2021/06/19 03:50:26;;;;;;;;;12.25;9.00;;;;;20.66;73.33;101200.91;4976936;28;45368;-80
2021/06/19 03:52:52;;;;;;;;;11.25;11.25;;;;;20.70;73.71;101206.88;4976158;28;45468;-80
2021/06/19 03:55:18;;;;;;;;;9.00;9.00;;;;;20.69;73.28;101202.50;4975699;28;46682;-81
2021/06/19 03:57:44;;;;;;;;;9.25;9.25;;;;;20.69;73.82;101203.34;4975622;28;45437;-81
2021/06/19 04:00:20;;;;;;;;;9.00;9.00;;;;;20.70;73.42;101210.38;4974806;28;45253;-80
2021/06/19 04:02:46;;;;;;;;;10.25;7.00;;;;;20.67;73.26;101202.59;4975218;28;45345;-80
2021/06/19 04:05:13;;;;;;;;;9.25;9.25;;;;;20.72;73.82;101216.44;4977773;28;45508;-80
2021/06/19 04:07:39;;;;;;;;;10.50;9.00;;;;;20.72;73.29;101213.78;4974336;28;46169;-81
2021/06/19 04:10:07;;;;;;;;;10.50;9.00;;;;;20.74;73.32;101205.66;4975615;28;45494;-79
2021/06/19 04:12:33;;;;;;;;;10.00;10.00;;;;;20.75;73.99;101205.53;4975279;28;45589;-80
2021/06/19 04:14:58;;;;;;;;;11.75;11.00;;;;;20.79;74.06;101211.50;4974676;28;45588;-80
2021/06/19 04:17:23;;;;;;;;;11.75;10.50;;;;;20.85;73.81;101205.66;4977215;28;45415;-79
2021/06/19 04:19:49;;;;;;;;;10.25;9.75;;;;;20.89;73.63;101196.44;4976081;28;45501;-80
2021/06/19 04:22:16;;;;;;;;;9.75;9.75;;;;;20.96;73.65;101202.16;4976312;28;45337;-80
2021/06/19 04:24:42;;;;;;;;;14.75;14.25;;;;;21.03;73.35;101214.88;4974373;28;45568;-80
2021/06/19 04:27:13;;;;;;;;;12.00;10.50;;;;;21.11;73.48;101220.47;4975760;28;45570;-80
2021/06/19 04:29:40;;;;;;;;;12.75;11.75;;;;;21.18;73.27;101223.50;4974366;28;45501;-80
2021/06/19 04:32:06;;;;;;;;;13.50;11.25;;;;;21.27;73.32;101221.94;4976577;28;45449;-80
2021/06/19 04:34:31;;;;;;;;;11.50;9.75;;;;;21.35;72.76;101209.69;4990743;28;47251;-79
2021/06/19 04:36:57;;;;;;;;;12.25;12.25;;;;;21.43;72.91;101206.38;4975443;28;45317;-79
2021/06/19 04:39:22;;;;;;;;;15.00;13.25;;;;;21.49;72.23;101215.72;4975246;28;45502;-80
2021/06/19 04:42:08;;;;;;;;;14.25;13.25;;;;;21.52;71.70;101224.38;4975560;28;45470;-80
2021/06/19 04:47:17;;;;;;;;;12.00;11.50;;;;;21.66;72.20;101228.56;4977730;28;45733;-80
2021/06/19 04:49:42;;;;;;;;;15.00;13.00;;;;;21.72;71.88;101213.88;4976213;28;45539;-79
2021/06/19 04:52:08;;;;;;;;;12.50;12.50;;;;;21.77;71.62;101217.88;4975174;28;45449;-81
2021/06/19 04:54:37;;;;;;;;;14.25;12.75;;;;;21.82;71.71;101228.16;4974302;28;46552;-80
2021/06/19 04:57:07;;;;;;;;;14.75;12.50;;;;;21.86;71.79;101224.25;4975213;28;45297;-80
2021/06/19 04:59:34;;;;;;;;;12.75;12.25;;;;;21.99;71.47;101230.31;4974622;28;45403;-80
2021/06/19 05:01:59;;;;;;;;;12.00;12.00;;;;;22.09;71.07;101225.03;4974122;28;45747;-80
2021/06/19 05:04:25;;;;;;;;;11.25;11.00;;;;;22.20;71.01;101219.66;4974677;28;46461;-80
2021/06/19 05:06:50;;;;;;;;;14.50;13.25;;;;;22.31;70.62;101224.13;4974753;28;45512;-79
2021/06/19 05:09:16;;;;;;;;;10.75;10.75;;;;;22.43;70.08;101220.38;4975222;28;45553;-80
2021/06/19 05:11:41;;;;;;;;;11.00;11.00;;;;;22.56;70.00;101222.88;4972992;28;45597;-80
2021/06/19 05:14:06;;;;;;;;;10.25;9.50;;;;;22.62;69.33;101217.84;4976185;28;46923;-80
2021/06/19 05:16:31;;;;;;;;;10.25;10.25;;;;;22.69;68.95;101236.06;4974284;28;45593;-79
2021/06/19 05:18:57;;;;;;;;;16.25;15.00;;;;;22.76;68.13;101234.53;4972627;28;50119;-81
2021/06/19 05:21:22;;;;;;;;;21.50;19.75;;;;;22.78;68.33;101237.94;4974221;28;45604;-80
2021/06/19 05:23:48;;;;;;;;;23.75;19.00;;;;;22.78;68.16;101233.44;4973988;28;45348;-80
2021/06/19 05:26:13;;;;;;;;;20.00;19.00;;;;;22.80;67.74;101238.66;4975047;28;45463;-80
2021/06/19 05:28:38;;;;;;;;;21.25;19.75;;;;;22.80;67.79;101241.34;4974337;28;45323;-80
2021/06/19 05:31:04;;;;;;;;;33.50;26.00;;;;;22.79;67.99;101240.47;4974609;28;45410;-80
2021/06/19 05:33:30;;;;;;;;;39.75;32.75;;;;;22.81;67.27;101249.25;4972682;28;47056;-80
2021/06/19 05:35:56;;;;;;;;;44.00;35.25;;;;;22.86;67.12;101235.44;4974390;28;45458;-79
2021/06/19 05:38:21;;;;;;;;;44.25;36.25;;;;;22.91;67.25;101227.88;4975676;28;45418;-80
2021/06/19 05:40:47;;;;;;;;;51.00;42.25;;;;;22.95;67.33;101237.34;4971655;28;45338;-80
2021/06/19 05:43:13;;;;;;;;;50.25;41.75;;;;;23.04;67.01;101233.88;4974061;28;46234;-80
2021/06/19 05:45:38;;;;;;;;;56.75;43.75;;;;;23.12;67.07;101226.00;4974216;28;45497;-80
2021/06/19 05:48:04;;;;;;;;;61.75;48.25;;;;;23.18;66.31;101213.91;4974359;28;46865;-80
2021/06/19 05:50:29;;;;;;;;;59.00;45.75;;;;;23.28;66.46;101214.75;4974479;28;45403;-80
2021/06/19 05:52:55;;;;;;;;;65.00;47.50;;;;;23.43;66.41;101215.22;4974200;28;45568;-79
2021/06/19 05:55:21;;;;;;;;;63.50;49.50;;;;;23.53;65.63;101208.03;4973260;28;45425;-80
2021/06/19 05:57:46;;;;;;;;;53.75;42.75;;;;;23.72;65.54;101206.44;4974265;28;45438;-80
2021/06/19 06:00:12;;;;;;;;;53.50;43.00;;;;;23.90;64.94;101194.00;4973744;28;45446;-80
2021/06/19 06:02:40;;;;;;;;;38.00;31.50;;;;;24.06;64.79;101196.09;4973405;28;45565;-80
2021/06/19 06:05:05;;;;;;;;;35.75;31.00;;;;;24.07;64.49;101190.63;4979392;28;45683;-79
2021/06/19 06:07:31;;;;;;;;;26.00;23.50;;;;;24.09;64.48;101198.53;4976075;28;45510;-79
2021/06/19 06:09:56;;;;;;;;;27.75;27.25;;;;;24.14;64.58;101207.84;4973376;28;45474;-80
2021/06/19 06:12:21;;;;;;;;;35.25;29.75;;;;;24.17;64.40;101198.66;4972292;28;45529;-80
2021/06/19 06:14:47;;;;;;;;;26.75;26.75;;;;;24.12;63.89;101190.19;4973425;28;45471;-79
2021/06/19 06:17:12;;;;;;;;;27.25;24.75;;;;;24.05;64.53;101189.91;4979708;28;45452;-78
2021/06/19 06:19:37;;;;;;;;;29.00;25.25;;;;;24.01;64.07;101191.16;4974980;28;45479;-82
2021/06/19 06:22:04;;;;;;;;;24.50;21.50;;;;;24.02;64.26;101190.19;4972521;28;47239;-76
2021/06/19 06:24:29;;;;;;;;;20.50;16.75;;;;;24.13;64.56;101182.00;4977698;28;45740;-83
2021/06/19 06:26:55;;;;;;;;;19.00;18.00;;;;;24.23;63.85;101189.19;4990811;28;45945;-80
2021/06/19 06:29:20;;;;;;;;;18.00;15.00;;;;;24.20;63.99;101195.69;4973963;28;45506;-81
2021/06/19 06:31:45;;;;;;;;;16.00;15.00;;;;;24.16;63.56;101188.91;4972114;28;46346;-80
2021/06/19 06:34:11;;;;;;;;;16.50;15.75;;;;;24.09;63.65;101201.22;4973603;28;49750;-81
2021/06/19 06:36:36;;;;;;;;;15.00;15.00;;;;;24.05;63.82;101197.94;4971982;28;45525;-81
2021/06/19 06:39:04;;;;;;;;;19.50;17.75;;;;;23.90;63.58;101185.94;4971966;28;45523;-81
2021/06/19 06:41:30;;;;;;;;;18.50;15.75;;;;;24.06;63.59;101212.22;4971696;28;45517;-81
2021/06/19 06:43:55;;;;;;;;;16.50;15.25;;;;;24.05;63.90;101210.53;4974116;28;45628;-81
2021/06/19 06:46:21;;;;;;;;;15.00;13.25;;;;;24.08;63.32;101221.84;4974480;28;45680;-82
2021/06/19 06:48:48;;;;;;;;;12.25;11.25;;;;;24.02;63.30;101217.06;4973325;28;45344;-80
2021/06/19 06:51:13;;;;;;;;;14.00;11.75;;;;;24.03;63.53;101215.22;4971704;28;46787;-81
2021/06/19 06:53:39;;;;;;;;;10.25;9.50;;;;;24.00;63.42;101223.53;4978658;28;45387;-80
2021/06/19 06:56:04;;;;;;;;;12.00;11.25;;;;;23.97;63.40;101224.69;4996475;28;45359;-80
2021/06/19 06:58:30;;;;;;;;;11.00;10.00;;;;;23.99;63.63;101235.25;4981047;28;46938;-82
2021/06/19 07:00:55;;;;;;;;;22.25;16.25;;;;;23.97;63.35;101226.50;4979565;28;46637;-80
2021/06/19 07:03:21;;;;;;;;;18.25;13.50;;;;;23.88;63.96;101222.81;4979746;28;45368;-80
2021/06/19 07:05:46;;;;;;;;;16.50;14.50;;;;;23.84;63.71;101226.78;4979831;28;45524;-81
2021/06/19 07:08:11;;;;;;;;;16.50;13.50;;;;;23.89;64.45;101235.25;4980287;28;45693;-81
2021/06/19 07:10:37;;;;;;;;;11.75;11.75;;;;;24.06;63.91;101226.50;4979408;28;46318;-81
2021/06/19 07:13:02;;;;;;;;;11.00;11.00;;;;;24.31;63.36;101227.75;4979953;28;46733;-80
2021/06/19 07:15:27;;;;;;;;;11.25;11.25;;;;;24.67;63.06;101215.41;4979426;28;45920;-81
2021/06/19 07:17:53;;;;;;;;;11.00;9.25;;;;;25.12;62.18;101209.34;4980247;28;45804;-81
2021/06/19 07:20:18;;;;;;;;;24.25;21.00;;;;;25.45;61.49;101215.97;4980258;28;46302;-81
2021/06/19 07:22:44;;;;;;;;;15.00;12.00;;;;;25.70;60.60;101219.78;4978884;28;45494;-81
2021/06/19 07:25:11;;;;;;;;;11.00;11.00;;;;;26.06;60.65;101213.59;4978156;28;45397;-73
2021/06/19 07:27:36;;;;;;;;;11.75;11.75;;;;;26.42;59.54;101219.81;4977874;28;45668;-73
2021/06/19 07:30:05;;;;;;;;;11.75;10.00;;;;;26.51;58.60;101210.75;4977435;28;46296;-73
2021/06/19 07:32:30;;;;;;;;;8.00;7.50;;;;;26.48;58.38;101203.84;4978668;28;46712;-74
2021/06/19 07:34:55;;;;;;;;;11.75;10.25;;;;;26.47;57.94;101193.22;4979592;28;45741;-74
2021/06/19 07:37:21;;;;;;;;;11.25;9.25;;;;;26.38;58.13;101181.50;4978318;28;45701;-74
2021/06/19 07:39:46;;;;;;;;;11.25;9.00;;;;;26.20;58.51;101168.06;4978844;28;46320;-74
2021/06/19 07:42:11;;;;;;;;;9.00;9.00;;;;;26.14;58.09;101181.31;4978985;28;45585;-73
2021/06/19 07:44:37;;;;;;;;;12.75;9.75;;;;;26.06;58.65;101152.47;4978040;28;47149;-74
2021/06/19 07:47:03;;;;;;;;;9.25;9.25;;;;;26.09;58.59;101135.16;4997028;28;45450;-74
2021/06/19 07:49:28;;;;;;;;;7.75;7.00;;;;;26.04;58.61;101100.59;4977447;28;47202;-75
2021/06/19 07:51:54;;;;;;;;;9.50;7.75;;;;;25.95;58.44;101099.72;4984467;28;45665;-75
2021/06/19 07:54:20;;;;;;;;;10.50;9.00;;;;;25.79;58.49;101098.72;4979586;28;45531;-76
2021/06/19 07:56:47;;;;;;;;;10.25;8.75;;;;;25.76;58.67;101137.59;4984371;28;46221;-75
2021/06/19 07:59:13;;;;;;;;;8.00;8.00;;;;;25.94;58.70;101145.63;4978721;28;46308;-74
2021/06/19 08:01:38;;;;;;;;;8.50;8.50;;;;;26.48;58.33;101155.34;4979309;28;45536;-77
2021/06/19 08:04:04;;;;;;;;;8.25;7.75;;;;;27.07;56.91;101141.97;4972538;28;45671;-75
2021/06/19 08:06:29;;;;;;;;;7.25;7.25;;;;;27.52;55.98;101138.06;4972708;28;45585;-75
2021/06/19 08:08:55;;;;;;;;;7.75;6.75;;;;;27.64;55.55;101135.88;4972479;28;47369;-75
2021/06/19 08:11:22;;;;;;;;;14.25;11.00;;;;;27.49;55.03;101139.22;4974149;28;46657;-75
2021/06/19 08:13:48;;;;;;;;;9.50;9.50;;;;;27.18;55.66;101127.34;4973087;28;45868;-74
2021/06/19 08:16:16;;;;;;;;;9.00;9.00;;;;;26.83;55.67;101115.72;4971374;28;45677;-76
2021/06/19 08:18:42;;;;;;;;;8.75;7.00;;;;;26.52;55.84;101091.19;4972545;28;46591;-76
2021/06/19 08:21:07;;;;;;;;;6.25;6.25;;;;;26.27;56.46;101085.63;4984856;28;45739;-75
2021/06/19 08:23:32;;;;;;;;;10.50;8.00;;;;;26.08;56.80;101082.28;4977321;28;45469;-75
2021/06/19 08:25:58;;;;;;;;;6.75;5.25;;;;;25.97;57.47;101086.09;4974967;28;45803;-73
2021/06/19 08:28:23;;;;;;;;;51.25;41.00;;;;;25.91;58.23;101114.50;4972646;28;46327;-73
2021/06/19 08:30:49;;;;;;;;;10.00;10.00;;;;;25.83;57.98;101130.56;4972795;28;45749;-73
2021/06/19 08:33:15;;;;;;;;;8.75;7.00;;;;;25.69;57.64;101136.47;4973357;28;45710;-74
2021/06/19 08:35:40;;;;;;;;;12.00;8.00;;;;;25.62;57.91;101138.94;4971881;28;45442;-73
2021/06/19 08:38:05;;;;;;;;;9.25;6.75;;;;;25.59;58.20;101120.41;4973059;28;45506;-74
2021/06/19 08:40:31;;;;;;;;;9.50;8.00;;;;;25.63;58.63;101112.84;4971128;28;45896;-72
2021/06/19 08:42:57;;;;;;;;;9.00;9.00;;;;;25.71;58.60;101099.47;4971581;28;45607;-71
2021/06/19 08:45:23;;;;;;;;;10.00;8.00;;;;;25.79;58.54;101098.72;4977727;28;45562;-72
2021/06/19 08:47:49;;;;;;;;;8.25;6.50;;;;;25.70;59.06;101095.94;4975437;28;45557;-72
2021/06/19 08:50:15;;;;;;;;;7.00;7.00;;;;;25.67;59.01;101103.47;4978287;28;45539;-72
2021/06/19 08:52:42;;;;;;;;;8.00;8.00;;;;;25.55;58.59;101093.97;4980824;28;45466;-72
2021/06/19 08:55:11;;;;;;;;;7.75;7.25;;;;;25.36;59.04;101093.09;4980911;28;45519;-72
2021/06/19 08:57:37;;;;;;;;;7.75;6.75;;;;;25.18;59.45;101089.56;4978782;28;46211;-72
2021/06/19 09:00:06;;;;;;;;;9.00;7.00;;;;;25.09;59.69;101077.84;4977470;28;45568;-72
2021/06/19 09:02:31;;;;;;;;;9.00;7.00;;;;;25.11;59.82;101080.38;4978160;28;45482;-74
2021/06/19 09:04:58;;;;;;;;;8.75;8.00;;;;;25.14;59.98;101072.88;4974952;28;45510;-72
2021/06/19 09:07:51;;;;;;;;;5.75;5.75;;;;;25.21;59.81;101071.28;4976957;28;46438;-73
2021/06/19 09:10:32;;;;;;;;;8.00;8.00;;;;;25.32;60.46;101070.22;4976235;28;45289;-72
2021/06/19 09:13:04;;;;;;;;;10.00;8.00;;;;;25.51;60.16;101066.50;4977049;28;45593;-73
2021/06/19 09:15:32;;;;;;;;;7.75;7.75;;;;;25.77;60.07;101078.19;4976915;28;45385;-73
2021/06/19 09:18:18;;;;;;;;;8.50;7.25;;;;;26.30;59.01;101081.75;4974651;28;45426;-73
2021/06/19 09:21:00;;;;;;;;;7.00;7.00;;;;;26.61;58.11;101068.63;4976125;28;45325;-72
2021/06/19 09:23:27;;;;;;;;;7.00;6.25;;;;;26.93;57.50;101072.44;4973783;28;45387;-72
2021/06/19 09:26:15;;;;;;;;;8.25;8.25;;;;;27.30;57.17;101074.75;4975602;28;45362;-73
2021/06/19 09:29:10;;;;;;;;;8.00;8.00;;;;;28.08;55.70;101068.84;4976653;28;46254;-73
2021/06/19 09:31:44;;;;;;;;;9.00;7.00;;;;;29.51;54.70;101072.28;4970302;28;45798;-72
2021/06/19 09:34:09;;;;;;;;;7.25;7.00;;;;;30.04;52.71;101078.59;4971315;28;45565;-72
2021/06/19 09:36:36;;;;;;;;;8.50;8.00;;;;;30.08;52.07;101077.22;4971158;28;45647;-72
2021/06/19 09:39:04;;;;;;;;;9.00;8.00;;;;;29.98;51.85;101082.06;4969395;28;45443;-72
2021/06/19 09:41:43;;;;;;;;;12.75;9.50;;;;;29.92;51.51;101069.25;4969868;28;46964;-72
2021/06/19 09:44:08;;;;;;;;;8.75;8.25;;;;;30.28;51.31;101058.53;4978040;28;45462;-73
2021/06/19 09:46:34;;;;;;;;;8.00;8.00;;;;;30.99;49.62;101072.41;4974888;28;45473;-73
2021/06/19 09:49:15;;;;;;;;;12.00;9.00;;;;;31.58;48.97;101066.78;4971954;28;47039;-73
2021/06/19 09:51:48;;;;;;;;;9.25;9.00;;;;;32.45;48.63;101069.13;4975364;28;45497;-73
2021/06/19 09:54:14;;;;;;;;;6.00;5.25;;;;;32.45;47.72;101067.25;4986901;28;45530;-73
2021/06/19 09:56:44;;;;;;;;;7.50;7.50;;;;;32.42;46.82;101064.94;4974334;28;45515;-73
2021/06/19 09:59:17;;;;;;;;;7.75;7.75;;;;;32.62;46.58;101065.00;4974832;28;45565;-72
2021/06/19 10:01:43;;;;;;;;;10.25;9.50;;;;;32.64;46.12;101062.13;4973445;28;45598;-73
2021/06/19 10:04:15;;;;;;;;;8.75;7.25;;;;;32.47;46.61;101067.91;4973878;28;45328;-73
2021/06/19 10:06:41;;;;;;;;;7.75;7.75;;;;;32.38;46.49;101069.09;4973823;28;45822;-73
2021/06/19 10:09:06;;;;;;;;;9.50;7.75;;;;;32.39;45.98;101053.63;4974755;28;45494;-73
2021/06/19 10:11:32;;;;;;;;;12.25;10.25;;;;;32.70;46.66;101055.84;4974574;28;45394;-74
2021/06/19 10:13:58;;;;;;;;;9.75;8.00;;;;;33.09;45.54;101051.59;4973505;28;45427;-74
2021/06/19 10:16:27;;;;;;;;;7.00;7.00;;;;;33.28;44.55;101052.69;4975807;28;45540;-73
2021/06/19 10:18:53;;;;;;;;;10.00;8.50;;;;;33.44;44.31;101053.16;4980642;28;45383;-73
2021/06/19 10:21:21;;;;;;;;;8.00;5.50;;;;;33.66;44.72;101039.31;4974925;28;45697;-73
2021/06/19 10:23:47;;;;;;;;;7.00;7.00;;;;;33.94;44.30;101042.69;4975326;28;45315;-74
2021/06/19 10:26:13;;;;;;;;;8.00;8.00;;;;;34.03;44.52;101042.44;4990594;28;45700;-74
2021/06/19 10:28:47;;;;;;;;;9.00;8.00;;;;;33.86;43.76;101044.75;4975369;28;45490;-73
2021/06/19 10:31:14;;;;;;;;;9.50;9.00;;;;;33.79;43.38;101031.13;4977294;28;45561;-74
2021/06/19 10:33:40;;;;;;;;;8.50;6.75;;;;;33.89;43.02;101023.38;4973779;28;45393;-74
2021/06/19 10:36:09;;;;;;;;;7.00;7.00;;;;;34.13;43.01;101027.31;4977757;28;45814;-73
2021/06/19 10:38:55;;;;;;;;;9.50;8.25;;;;;34.40;42.63;101022.59;4974362;28;46591;-74
2021/06/19 10:41:48;;;;;;;;;9.75;9.75;;;;;34.51;41.58;101021.97;4971659;28;45661;-74
2021/06/19 10:44:14;;;;;;;;;5.50;5.50;;;;;34.39;42.19;101011.91;4983707;28;45459;-74
2021/06/19 10:46:41;;;;;;;;;13.25;9.50;;;;;34.20;42.07;101005.50;4974627;28;45927;-74
2021/06/19 10:49:18;;;;;;;;;7.75;7.25;;;;;34.14;42.38;101006.31;4974786;28;45421;-74
2021/06/19 10:51:44;;;;;;;;;10.00;8.00;;;;;34.26;42.01;100997.28;4973836;28;45649;-74
2021/06/19 10:54:14;;;;;;;;;9.75;8.50;;;;;34.47;41.28;100996.19;4978488;28;46706;-74
2021/06/19 10:56:53;;;;;;;;;8.00;8.00;;;;;34.34;41.61;100988.00;4972697;28;45565;-74
2021/06/19 10:59:32;;;;;;;;;6.75;5.50;;;;;34.18;41.91;100983.03;4971818;28;45668;-74
2021/06/19 11:01:59;;;;;;;;;9.50;9.50;;;;;33.75;41.80;100978.91;4984432;28;45583;-74
2021/06/19 11:04:38;;;;;;;;;8.75;8.75;;;;;33.35;42.67;100986.25;4975764;28;45440;-74
2021/06/19 11:07:18;;;;;;;;;9.00;8.00;;;;;33.25;42.99;100983.09;4974150;28;45546;-74
2021/06/19 11:09:46;;;;;;;;;10.50;8.25;;;;;33.39;43.12;100983.94;4965531;28;45582;-73
2021/06/19 11:12:34;;;;;;;;;11.25;9.25;;;;;33.34;42.81;100973.69;4971651;28;45745;-74
2021/06/19 11:15:09;;;;;;;;;7.00;7.00;;;;;33.46;42.47;100971.19;4997805;28;45454;-74
2021/06/19 11:17:34;;;;;;;;;7.75;6.50;;;;;33.54;42.74;100968.25;4973339;28;45400;-73
2021/06/19 11:20:06;;;;;;;;;9.25;9.25;;;;;33.57;42.15;100970.56;4980844;28;46546;-74
2021/06/19 11:22:37;;;;;;;;;8.00;7.75;;;;;33.70;42.46;100969.72;4974938;28;45663;-74